createdAt,value
2022-11-05T00:00:53.600Z,5.27
2022-11-05T00:03:43.845Z,5.20
2022-11-05T00:06:29.719Z,5.50
2022-11-05T00:09:15.241Z,5.10
2022-11-05T00:12:00.628Z,5.60
2022-11-05T00:14:46.425Z,5.40
2022-11-05T00:17:13.346Z,5.23
2022-11-05T00:19:40.341Z,5.07
2022-11-05T00:22:25.660Z,4.93
2022-11-05T00:25:11.168Z,5.40
2022-11-05T00:27:38.134Z,5.93
2022-11-05T00:30:05.900Z,5.60
2022-11-05T00:32:33.976Z,6.00
2022-11-05T00:35:01.018Z,4.87
2022-11-05T00:37:28.995Z,5.70
2022-11-05T00:39:56.048Z,5.40
2022-11-05T00:42:41.410Z,6.10
2022-11-05T00:45:09.102Z,5.57
2022-11-05T00:47:55.006Z,5.80
2022-11-05T00:50:23.188Z,5.87
2022-11-05T00:52:56.342Z,5.73
2022-11-05T00:55:34.673Z,5.70
2022-11-05T00:58:04.933Z,5.10
2022-11-05T01:00:34.961Z,4.93
2022-11-05T01:03:06.396Z,5.47
2022-11-05T01:05:35.173Z,4.90
2022-11-05T01:08:02.521Z,5.10
2022-11-05T01:10:30.495Z,5.13
2022-11-05T01:12:58.837Z,5.23
2022-11-05T01:15:25.810Z,4.97
2022-11-05T01:17:53.067Z,5.30
2022-11-05T01:20:20.059Z,5.33
2022-11-05T01:22:47.068Z,6.37
2022-11-05T01:25:14.789Z,6.10
2022-11-05T01:27:41.729Z,5.17
2022-11-05T01:30:09.888Z,5.07
2022-11-05T01:32:38.219Z,6.07
2022-11-05T01:35:08.560Z,5.30
2022-11-05T01:37:36.031Z,5.50
2022-11-05T01:40:03.528Z,5.10
2022-11-05T01:42:34.367Z,5.90
2022-11-05T01:45:07.303Z,6.03
2022-11-05T01:47:44.907Z,5.33
2022-11-05T01:50:40.352Z,5.63
2022-11-05T01:53:30.337Z,5.50
2022-11-05T01:56:10.587Z,5.37
2022-11-05T01:58:51.000Z,5.80
2022-11-05T02:01:19.353Z,6.47
2022-11-05T02:03:51.408Z,6.67
2022-11-05T02:06:19.663Z,7.00
2022-11-05T02:08:57.697Z,5.93
2022-11-05T02:11:25.331Z,6.23
2022-11-05T02:13:53.093Z,6.67
2022-11-05T02:16:51.231Z,9.63
2022-11-05T02:20:06.670Z,7.63
2022-11-05T02:23:05.257Z,7.50
2022-11-05T02:26:12.589Z,6.80
2022-11-05T02:29:13.270Z,7.40
2022-11-05T02:31:59.324Z,7.23
2022-11-05T02:34:36.221Z,6.77
2022-11-05T02:37:35.399Z,6.50
2022-11-05T02:40:40.219Z,6.63
2022-11-05T02:43:45.678Z,6.47
2022-11-05T02:47:07.224Z,7.00
2022-11-05T02:49:41.821Z,6.33
2022-11-05T02:52:29.232Z,7.13
2022-11-05T02:55:18.315Z,6.83
2022-11-05T02:57:47.871Z,6.97
2022-11-05T03:00:40.544Z,6.47
2022-11-05T03:03:17.772Z,7.80
2022-11-05T03:05:52.870Z,7.47
2022-11-05T03:08:54.248Z,8.83
2022-11-05T03:11:25.605Z,7.87
2022-11-05T03:14:37.062Z,7.40
2022-11-05T03:17:35.539Z,8.20
2022-11-05T03:20:28.928Z,7.40
2022-11-05T03:23:13.635Z,6.83
2022-11-05T03:25:51.422Z,7.17
2022-11-05T03:28:26.048Z,8.70
2022-11-05T03:30:57.153Z,7.93
2022-11-05T03:33:31.870Z,8.47
2022-11-05T03:36:05.497Z,8.47
2022-11-05T03:38:37.301Z,7.80
2022-11-05T03:41:10.648Z,9.23
2022-11-05T03:43:45.421Z,7.20
2022-11-05T03:46:27.397Z,7.97
2022-11-05T03:48:57.431Z,8.77
2022-11-05T03:51:51.786Z,8.67
2022-11-05T03:54:18.823Z,8.77
2022-11-05T03:57:23.953Z,8.17
2022-11-05T03:59:52.210Z,8.10
2022-11-05T04:02:25.912Z,8.43
2022-11-05T04:04:54.579Z,8.77
2022-11-05T04:07:39.980Z,9.67
2022-11-05T04:10:25.744Z,9.87
2022-11-05T04:13:11.367Z,9.53
2022-11-05T04:16:02.091Z,9.70
2022-11-05T04:18:29.146Z,9.13
2022-11-05T04:21:14.735Z,10.10
2022-11-05T04:24:00.152Z,9.00
2022-11-05T04:26:27.072Z,10.43
2022-11-05T04:29:12.875Z,9.00
2022-11-05T04:31:39.758Z,9.80
2022-11-05T04:34:06.681Z,9.50
2022-11-05T04:36:33.653Z,9.53
2022-11-05T04:39:00.597Z,10.17
2022-11-05T04:41:27.550Z,8.77
2022-11-05T04:43:54.513Z,9.93
2022-11-05T04:46:22.082Z,10.03
2022-11-05T04:48:49.084Z,10.20
2022-11-05T04:51:16.096Z,9.10
2022-11-05T04:53:43.055Z,9.90
2022-11-05T04:56:22.821Z,11.20
2022-11-05T04:58:50.575Z,11.50
2022-11-05T05:01:21.499Z,10.27
2022-11-05T05:03:53.425Z,11.20
2022-11-05T05:06:21.635Z,12.00
2022-11-05T05:08:51.032Z,12.20
2022-11-05T05:11:21.735Z,14.20
2022-11-05T05:13:50.359Z,11.03
2022-11-05T05:16:23.727Z,11.20
2022-11-05T05:18:52.261Z,10.17
2022-11-05T05:21:41.135Z,10.53
2022-11-05T05:24:19.099Z,9.53
2022-11-05T05:26:49.763Z,10.70
2022-11-05T05:29:18.136Z,8.83
2022-11-05T05:31:45.320Z,9.73
2022-11-05T05:34:14.839Z,8.50
2022-11-05T05:36:42.152Z,7.23
2022-11-05T05:39:11.389Z,8.27
2022-11-05T05:41:38.439Z,7.77
2022-11-05T05:44:06.689Z,6.03
2022-11-05T05:46:34.424Z,5.70
2022-11-05T05:49:01.408Z,6.77
2022-11-05T05:51:28.470Z,4.73
2022-11-05T05:53:55.769Z,3.80
2022-11-05T05:56:22.696Z,4.40
2022-11-05T05:58:49.799Z,3.57
2022-11-05T06:01:19.864Z,3.23
2022-11-05T06:03:48.948Z,3.50
2022-11-05T06:06:20.049Z,3.90
2022-11-05T06:08:47.973Z,5.23
2022-11-05T06:11:16.216Z,4.30
2022-11-05T06:13:43.226Z,4.20
2022-11-05T06:16:11.401Z,4.37
2022-11-05T06:18:38.531Z,4.40
2022-11-05T06:21:09.661Z,3.57
2022-11-05T06:23:39.261Z,4.00
2022-11-05T06:26:11.070Z,2.90
2022-11-05T06:28:38.361Z,3.93
2022-11-05T06:31:06.155Z,3.40
2022-11-05T06:33:33.087Z,3.40
2022-11-05T06:36:04.835Z,3.57
2022-11-05T06:38:35.266Z,3.10
2022-11-05T06:41:09.029Z,3.37
2022-11-05T06:43:37.649Z,4.60
2022-11-05T06:46:05.592Z,3.97
2022-11-05T06:48:33.179Z,4.20
2022-11-05T06:51:00.163Z,3.60
2022-11-05T06:53:27.835Z,3.83
2022-11-05T06:55:55.134Z,3.90
2022-11-05T06:58:22.586Z,3.70
2022-11-05T07:00:50.202Z,3.43
2022-11-05T07:03:17.379Z,4.00
2022-11-05T07:05:49.170Z,3.80
2022-11-05T07:08:17.136Z,4.27
2022-11-05T07:10:44.304Z,4.00
2022-11-05T07:13:12.519Z,3.50
2022-11-05T07:15:39.865Z,3.70
2022-11-05T07:18:07.714Z,4.23
2022-11-05T07:20:35.366Z,4.60
2022-11-05T07:23:08.866Z,3.97
2022-11-05T07:25:36.465Z,4.10
2022-11-05T07:28:04.832Z,4.10
2022-11-05T07:30:33.387Z,3.67
2022-11-05T07:33:00.414Z,3.17
2022-11-05T07:35:28.155Z,4.57
2022-11-05T07:37:56.114Z,4.37
2022-11-05T07:40:26.369Z,4.20
2022-11-05T07:43:01.904Z,5.17
2022-11-05T07:45:31.233Z,4.73
2022-11-05T07:48:04.219Z,4.70
2022-11-05T07:50:35.877Z,5.30
2022-11-05T07:53:10.342Z,6.10
2022-11-05T07:55:38.144Z,5.53
2022-11-05T07:58:05.230Z,5.00
2022-11-05T08:00:33.137Z,5.33
2022-11-05T08:03:08.496Z,4.63
2022-11-05T08:05:40.681Z,5.40
2022-11-05T08:08:09.699Z,6.47
2022-11-05T08:10:38.541Z,5.27
2022-11-05T08:13:08.113Z,10.30
2022-11-05T08:15:36.037Z,6.50
2022-11-05T08:18:10.666Z,5.20
2022-11-05T08:20:38.621Z,4.73
2022-11-05T08:23:06.038Z,5.10
2022-11-05T08:25:33.783Z,5.03
2022-11-05T08:28:07.935Z,3.90
2022-11-05T08:30:35.975Z,4.50
2022-11-05T08:33:10.955Z,4.20
2022-11-05T08:35:39.806Z,4.10
2022-11-05T08:38:09.259Z,4.10
2022-11-05T08:40:37.912Z,3.70
2022-11-05T08:43:08.129Z,4.97
2022-11-05T08:45:39.505Z,4.37
2022-11-05T08:48:12.763Z,5.30
2022-11-05T08:50:40.398Z,5.63
2022-11-05T08:53:09.520Z,6.20
2022-11-05T08:55:38.482Z,6.70
2022-11-05T08:58:15.164Z,7.70
2022-11-05T09:00:44.069Z,9.40
2022-11-05T09:03:12.364Z,7.43
2022-11-05T09:05:41.792Z,7.93
2022-11-05T09:08:15.610Z,8.07
2022-11-05T09:10:44.289Z,7.50
2022-11-05T09:13:17.823Z,7.97
2022-11-05T09:15:47.439Z,7.60
2022-11-05T09:18:15.374Z,7.83
2022-11-05T09:20:42.734Z,8.60
2022-11-05T09:23:11.945Z,8.47
2022-11-05T09:25:39.320Z,7.80
2022-11-05T09:28:21.536Z,9.23
2022-11-05T09:30:51.674Z,7.80
2022-11-05T09:33:22.711Z,8.23
2022-11-05T09:35:50.086Z,8.47
2022-11-05T09:38:17.152Z,9.83
2022-11-05T09:40:46.874Z,8.20
2022-11-05T09:43:20.770Z,8.37
2022-11-05T09:45:54.906Z,8.40
2022-11-05T09:48:28.566Z,10.00
2022-11-05T09:50:55.834Z,10.03
2022-11-05T09:53:24.412Z,9.23
2022-11-05T09:55:59.538Z,9.37
2022-11-05T09:58:46.129Z,9.97
2022-11-05T10:01:23.627Z,10.03
2022-11-05T10:03:57.562Z,9.50
2022-11-05T10:06:27.055Z,11.37
2022-11-05T10:09:37.484Z,9.83
2022-11-05T10:12:21.630Z,8.97
2022-11-05T10:15:05.831Z,10.13
2022-11-05T10:17:39.156Z,13.33
2022-11-05T10:20:51.340Z,12.27
2022-11-05T10:23:21.450Z,9.50
2022-11-05T10:25:58.621Z,8.90
2022-11-05T10:28:30.836Z,11.30
2022-11-05T10:31:12.688Z,11.67
2022-11-05T10:34:00.428Z,10.50
2022-11-05T10:36:35.055Z,11.40
2022-11-05T10:39:11.231Z,14.47
2022-11-05T10:42:15.130Z,13.77
2022-11-05T10:45:04.564Z,14.50
2022-11-05T10:48:05.045Z,12.33
2022-11-05T10:50:33.589Z,13.53
2022-11-05T10:53:11.829Z,12.53
2022-11-05T10:55:48.285Z,12.63
2022-11-05T10:58:18.118Z,12.47
2022-11-05T11:01:02.234Z,12.90
2022-11-05T11:03:38.318Z,11.67
2022-11-05T11:06:30.019Z,12.07
2022-11-05T11:09:02.266Z,10.93
2022-11-05T11:11:42.501Z,12.40
2022-11-05T11:14:12.779Z,11.77
2022-11-05T11:16:47.747Z,11.03
2022-11-05T11:19:33.986Z,11.43
2022-11-05T11:22:03.854Z,12.47
2022-11-05T11:24:51.158Z,11.30
2022-11-05T11:27:30.383Z,11.73
2022-11-05T11:30:03.306Z,11.90
2022-11-05T11:32:37.532Z,11.97
2022-11-05T11:35:08.196Z,11.70
2022-11-05T11:37:42.241Z,12.13
2022-11-05T11:40:20.275Z,11.23
2022-11-05T11:42:56.099Z,11.47
2022-11-05T11:45:30.435Z,9.93
2022-11-05T11:47:58.191Z,10.60
2022-11-05T11:50:44.797Z,10.83
2022-11-05T11:53:20.806Z,10.10
2022-11-05T11:56:03.663Z,9.33
2022-11-05T11:58:52.942Z,10.03
2022-11-05T12:01:50.470Z,9.53
2022-11-05T12:05:00.320Z,11.47
2022-11-05T12:07:53.751Z,9.67
2022-11-05T12:10:35.754Z,9.90
2022-11-05T12:13:21.221Z,9.93
2022-11-05T12:16:15.862Z,9.90
2022-11-05T12:19:04.793Z,9.10
2022-11-05T12:21:52.113Z,9.00
2022-11-05T12:24:38.318Z,8.70
2022-11-05T12:27:35.860Z,9.60
2022-11-05T12:30:14.538Z,9.07
2022-11-05T12:33:12.552Z,8.80
2022-11-05T12:35:58.350Z,9.40
2022-11-05T12:38:54.961Z,7.90
2022-11-05T12:41:41.476Z,8.67
2022-11-05T12:44:49.745Z,9.33
2022-11-05T12:47:34.570Z,9.53
2022-11-05T12:50:36.321Z,9.00
2022-11-05T12:53:40.988Z,7.90
2022-11-05T12:56:44.575Z,9.40
2022-11-05T12:59:46.065Z,8.73
2022-11-05T13:02:18.420Z,8.63
2022-11-05T13:05:15.163Z,8.80
2022-11-05T13:08:00.763Z,8.80
2022-11-05T13:11:12.041Z,8.37
2022-11-05T13:14:07.786Z,8.80
2022-11-05T13:16:40.740Z,7.30
2022-11-05T13:19:24.675Z,7.73
2022-11-05T13:21:58.969Z,8.00
2022-11-05T13:24:53.696Z,6.90
2022-11-05T13:27:42.539Z,8.93
2022-11-05T13:30:21.529Z,7.97
2022-11-05T13:33:05.821Z,7.93
2022-11-05T13:36:25.361Z,7.03
2022-11-05T13:39:13.180Z,7.63
2022-11-05T13:42:21.196Z,7.70
2022-11-05T13:45:14.985Z,7.50
2022-11-05T13:48:06.979Z,8.17
2022-11-05T13:51:34.856Z,8.67
2022-11-05T13:54:33.437Z,8.87
2022-11-05T13:57:21.189Z,7.90
2022-11-05T13:59:51.742Z,7.83
2022-11-05T14:02:29.599Z,8.97
2022-11-05T14:05:01.886Z,9.00
2022-11-05T14:07:37.054Z,7.77
2022-11-05T14:10:25.411Z,7.67
2022-11-05T14:12:56.116Z,8.87
2022-11-05T14:15:30.189Z,8.83
2022-11-05T14:18:00.032Z,8.70
2022-11-05T14:20:46.231Z,9.37
2022-11-05T14:23:24.944Z,9.63
2022-11-05T14:26:19.838Z,9.30
2022-11-05T14:29:02.914Z,10.10
2022-11-05T14:32:02.397Z,9.87
2022-11-05T14:34:46.181Z,9.10
2022-11-05T14:37:13.149Z,10.40
2022-11-05T14:39:40.763Z,9.80
2022-11-05T14:42:15.229Z,9.83
2022-11-05T14:45:13.756Z,9.90
2022-11-05T14:48:28.450Z,10.87
2022-11-05T14:50:55.582Z,11.60
2022-11-05T14:53:38.512Z,10.07
2022-11-05T14:56:11.889Z,10.87
2022-11-05T14:58:44.587Z,11.40
2022-11-05T15:01:14.494Z,10.63
2022-11-05T15:03:46.267Z,9.60
2022-11-05T15:06:23.239Z,10.10
2022-11-05T15:08:50.170Z,9.67
2022-11-05T15:11:52.754Z,9.13
2022-11-05T15:14:49.633Z,9.07
2022-11-05T15:17:30.263Z,9.17
2022-11-05T15:20:40.410Z,10.07
2022-11-05T15:23:14.538Z,9.40
2022-11-05T15:26:10.621Z,9.60
2022-11-05T15:28:42.940Z,10.10
2022-11-05T15:31:12.649Z,10.10
2022-11-05T15:33:42.590Z,10.50
2022-11-05T15:36:15.076Z,9.60
2022-11-05T15:38:56.598Z,10.27
2022-11-05T15:41:34.716Z,12.10
2022-11-05T15:44:02.874Z,10.50
2022-11-05T15:46:30.283Z,11.13
2022-11-05T15:49:07.296Z,9.57
2022-11-05T15:51:36.227Z,11.37
2022-11-05T15:56:57.412Z,13.63
2022-11-05T15:59:27.448Z,12.37
2022-11-05T16:02:02.129Z,13.23
2022-11-05T16:04:33.759Z,12.67
2022-11-05T16:07:11.878Z,11.93
2022-11-05T16:09:43.947Z,13.20
2022-11-05T16:12:19.967Z,12.47
2022-11-05T16:15:11.014Z,11.90
2022-11-05T16:17:37.899Z,17.40
2022-11-05T16:20:34.367Z,11.80
2022-11-05T16:23:05.766Z,12.43
2022-11-05T16:25:42.291Z,11.93
2022-11-05T16:28:28.518Z,12.73
2022-11-05T16:31:03.604Z,15.47
2022-11-05T16:33:41.865Z,16.03
2022-11-05T16:36:09.475Z,15.37
2022-11-05T16:38:36.540Z,14.80
2022-11-05T16:41:03.453Z,15.47
2022-11-05T16:43:30.796Z,17.23
2022-11-05T16:46:01.068Z,17.50
2022-11-05T16:48:28.964Z,18.80
2022-11-05T16:50:56.046Z,16.27
2022-11-05T16:53:23.400Z,17.40
2022-11-05T16:55:50.446Z,17.57
2022-11-05T16:58:19.938Z,17.23
2022-11-05T17:00:48.735Z,17.13
2022-11-05T17:03:15.832Z,17.13
2022-11-05T17:05:43.690Z,19.03
2022-11-05T17:08:10.895Z,21.77
2022-11-05T17:10:38.587Z,19.50
2022-11-05T17:13:05.561Z,18.70
2022-11-05T17:15:37.630Z,21.80
2022-11-05T17:18:06.132Z,23.70
2022-11-05T17:20:43.551Z,25.00
2022-11-05T17:23:15.067Z,28.20
2022-11-05T17:25:47.556Z,33.13
2022-11-05T17:28:17.066Z,31.23
2022-11-05T17:30:50.881Z,24.33
2022-11-05T17:33:21.815Z,22.63
2022-11-05T17:35:49.152Z,20.80
2022-11-05T17:38:17.785Z,18.30
2022-11-05T17:40:45.792Z,19.03
2022-11-05T17:43:12.909Z,20.20
2022-11-05T17:45:46.075Z,18.00
2022-11-05T17:48:14.429Z,25.20
2022-11-05T17:50:44.842Z,26.90
2022-11-05T17:53:13.804Z,27.10
2022-11-05T17:55:44.209Z,25.47
2022-11-05T17:58:12.180Z,23.33
2022-11-05T18:00:41.347Z,19.87
2022-11-05T18:03:10.966Z,18.47
2022-11-05T18:05:40.429Z,20.20
2022-11-05T18:08:07.944Z,18.23
2022-11-05T18:10:38.561Z,19.50
2022-11-05T18:13:06.980Z,19.10
2022-11-05T18:15:35.712Z,23.20
2022-11-05T18:18:02.908Z,20.20
2022-11-05T18:20:30.257Z,18.77
2022-11-05T18:22:57.293Z,19.07
2022-11-05T18:25:24.486Z,19.70
2022-11-05T18:27:51.775Z,22.83
2022-11-05T18:30:19.075Z,32.30
2022-11-05T18:32:46.277Z,24.83
2022-11-05T18:35:14.837Z,25.63
2022-11-05T18:37:43.616Z,18.90
2022-11-05T18:40:13.310Z,19.17
2022-11-05T18:42:40.840Z,26.90
2022-11-05T18:45:10.075Z,23.70
2022-11-05T18:47:37.435Z,18.30
2022-11-05T18:50:06.259Z,17.90
2022-11-05T18:52:33.415Z,17.90
2022-11-05T18:55:00.682Z,14.17
2022-11-05T18:57:29.042Z,17.20
2022-11-05T18:59:56.013Z,10.63
2022-11-05T19:02:23.304Z,9.80
2022-11-05T19:05:14.424Z,8.80
2022-11-05T19:07:39.455Z,8.67
2022-11-05T19:10:07.731Z,8.53
2022-11-05T19:12:34.811Z,7.47
2022-11-05T19:15:02.935Z,7.90
2022-11-05T19:17:33.770Z,7.60
2022-11-05T19:20:04.261Z,8.10
2022-11-05T19:22:51.856Z,10.07
2022-11-05T19:25:33.787Z,25.67
2022-11-05T19:28:16.869Z,15.10
2022-11-05T19:31:02.558Z,27.10
2022-11-05T19:33:47.696Z,18.20
2022-11-05T19:36:41.150Z,28.90
2022-11-05T19:39:29.128Z,29.57
2022-11-05T19:42:48.011Z,19.47
2022-11-05T19:45:48.807Z,18.63
2022-11-05T19:48:45.411Z,13.03
2022-11-05T19:51:46.950Z,11.50
2022-11-05T19:54:39.377Z,12.77
2022-11-05T19:57:39.831Z,10.30
2022-11-05T20:00:10.055Z,11.17
2022-11-05T20:02:47.433Z,12.67
2022-11-05T20:05:31.119Z,13.43
2022-11-05T20:08:07.818Z,11.73
2022-11-05T20:10:43.979Z,14.00
2022-11-05T20:13:19.823Z,14.27
2022-11-05T20:16:05.250Z,13.00
2022-11-05T20:19:00.145Z,13.00
2022-11-05T20:21:56.803Z,13.87
2022-11-05T20:24:45.996Z,14.67
2022-11-05T20:27:26.098Z,15.40
2022-11-05T20:30:02.521Z,15.60
2022-11-05T20:32:40.887Z,15.30
2022-11-05T20:35:17.447Z,14.83
2022-11-05T20:37:53.919Z,20.03
2022-11-05T20:40:30.425Z,17.27
2022-11-05T20:42:58.326Z,22.80
2022-11-05T20:45:27.425Z,26.40
2022-11-05T20:47:57.755Z,24.40
2022-11-05T20:50:29.097Z,23.00
2022-11-05T20:52:59.567Z,36.30
2022-11-05T20:55:29.427Z,29.00
2022-11-05T20:58:00.206Z,21.93
2022-11-05T21:00:29.320Z,20.30
2022-11-05T21:03:01.533Z,14.63
2022-11-05T21:05:37.928Z,14.17
2022-11-05T21:08:06.386Z,14.30
2022-11-05T21:10:36.700Z,13.93
2022-11-05T21:13:08.649Z,15.70
2022-11-05T21:15:42.900Z,15.00
2022-11-05T21:18:14.051Z,15.03
2022-11-05T21:20:41.437Z,15.90
2022-11-05T21:23:08.398Z,14.10
2022-11-05T21:25:41.121Z,13.80
2022-11-05T21:28:10.529Z,13.87
2022-11-05T21:30:42.225Z,13.20
2022-11-05T21:33:09.481Z,12.40
2022-11-05T21:35:46.591Z,12.93
2022-11-05T21:38:17.086Z,12.00
2022-11-05T21:40:45.446Z,11.30
2022-11-05T21:43:14.104Z,11.60
2022-11-05T21:45:44.460Z,11.20
2022-11-05T21:48:12.631Z,11.70
2022-11-05T21:51:00.055Z,11.30
2022-11-05T21:53:46.443Z,11.23
2022-11-05T21:56:48.509Z,11.10
2022-11-05T21:59:39.733Z,11.80
2022-11-05T22:02:09.944Z,12.20
2022-11-05T22:04:46.594Z,11.60
2022-11-05T22:07:17.715Z,10.70
2022-11-05T22:09:45.176Z,10.40
2022-11-05T22:12:13.066Z,8.70
2022-11-05T22:14:40.505Z,8.67
2022-11-05T22:17:09.470Z,8.93
2022-11-05T22:19:37.506Z,9.07
2022-11-05T22:22:06.120Z,9.43
2022-11-05T22:24:34.995Z,8.10
2022-11-05T22:27:13.960Z,9.77
2022-11-05T22:29:41.676Z,9.83
2022-11-05T22:32:10.804Z,9.77
2022-11-05T22:34:37.915Z,9.17
2022-11-05T22:37:05.687Z,8.70
2022-11-05T22:39:32.828Z,9.77
2022-11-05T22:42:05.560Z,8.47
2022-11-05T22:44:35.365Z,8.80
2022-11-05T22:47:02.322Z,9.20
2022-11-05T22:49:29.260Z,9.00
2022-11-05T22:51:56.364Z,10.50
2022-11-05T22:54:23.259Z,9.97
2022-11-05T22:56:54.008Z,9.87
2022-11-05T22:59:21.167Z,10.20
2022-11-05T23:01:48.361Z,9.40
2022-11-05T23:04:16.420Z,8.97
2022-11-05T23:07:01.979Z,8.40
2022-11-05T23:09:53.343Z,8.47
2022-11-05T23:12:26.422Z,9.17
2022-11-05T23:14:55.712Z,8.93
2022-11-05T23:17:41.857Z,10.20
2022-11-05T23:20:15.529Z,9.97
2022-11-05T23:23:01.195Z,9.70
2022-11-05T23:25:28.211Z,9.40
2022-11-05T23:27:56.110Z,9.87
2022-11-05T23:30:26.664Z,10.10
2022-11-05T23:32:54.281Z,9.80
2022-11-05T23:35:41.140Z,9.80
2022-11-05T23:38:26.811Z,10.00
2022-11-05T23:41:11.970Z,9.60
2022-11-05T23:43:57.419Z,9.93
2022-11-05T23:46:42.914Z,10.27
2022-11-05T23:49:09.983Z,10.03
2022-11-05T23:51:36.970Z,9.67
2022-11-05T23:54:04.060Z,11.27
2022-11-05T23:56:32.141Z,10.27
2022-11-05T23:58:59.138Z,10.20
